sensor_id;sensor_type;location;lat;lon;timestamp;P1;durP1;ratioP1;P2;durP2;ratioP2
32697;SDS011;19087;51.062;3.754;2022-12-18T09:17:33;44.38;;;22.98;;
32697;SDS011;19087;51.062;3.754;2022-12-18T09:20:00;42.15;;;19.50;;
32697;SDS011;19087;51.062;3.754;2022-12-18T09:22:30;37.53;;;19.73;;
32697;SDS011;19087;51.062;3.754;2022-12-18T09:24:56;33.70;;;17.67;;
32697;SDS011;19087;51.062;3.754;2022-12-18T09:27:21;35.47;;;18.73;;
32697;SDS011;19087;51.062;3.754;2022-12-18T09:29:47;34.05;;;18.00;;
32697;SDS011;19087;51.062;3.754;2022-12-18T09:38:58;33.05;;;18.20;;
32697;SDS011;19087;51.062;3.754;2022-12-18T09:49:45;34.90;;;17.27;;
32697;SDS011;19087;51.062;3.754;2022-12-18T09:52:23;35.95;;;18.98;;
32697;SDS011;19087;51.062;3.754;2022-12-18T09:55:00;34.83;;;17.70;;
32697;SDS011;19087;51.062;3.754;2022-12-18T09:57:34;30.00;;;16.75;;
32697;SDS011;19087;51.062;3.754;2022-12-18T10:02:47;36.90;;;19.58;;
32697;SDS011;19087;51.062;3.754;2022-12-18T10:05:15;31.05;;;18.23;;
32697;SDS011;19087;51.062;3.754;2022-12-18T10:16:03;30.52;;;17.17;;
32697;SDS011;19087;51.062;3.754;2022-12-18T10:21:13;29.60;;;16.52;;
32697;SDS011;19087;51.062;3.754;2022-12-18T10:23:54;37.58;;;19.75;;
32697;SDS011;19087;51.062;3.754;2022-12-18T10:26:34;35.40;;;18.45;;
32697;SDS011;19087;51.062;3.754;2022-12-18T10:29:00;35.03;;;17.58;;
32697;SDS011;19087;51.062;3.754;2022-12-18T10:31:30;31.38;;;17.77;;
32697;SDS011;19087;51.062;3.754;2022-12-18T10:33:56;26.80;;;16.20;;
32697;SDS011;19087;51.062;3.754;2022-12-18T10:36:24;36.65;;;19.73;;
32697;SDS011;19087;51.062;3.754;2022-12-18T10:38:50;28.27;;;17.98;;
32697;SDS011;19087;51.062;3.754;2022-12-18T10:44:09;29.30;;;17.33;;
32697;SDS011;19087;51.062;3.754;2022-12-18T10:46:46;29.90;;;16.70;;
32697;SDS011;19087;51.062;3.754;2022-12-18T10:49:27;32.75;;;18.30;;
32697;SDS011;19087;51.062;3.754;2022-12-18T10:54:51;32.13;;;17.88;;
32697;SDS011;19087;51.062;3.754;2022-12-18T11:03:15;37.53;;;19.73;;
32697;SDS011;19087;51.062;3.754;2022-12-18T11:06:02;30.90;;;18.83;;
32697;SDS011;19087;51.062;3.754;2022-12-18T11:08:28;33.28;;;19.85;;
32697;SDS011;19087;51.062;3.754;2022-12-18T11:10:53;33.58;;;18.75;;
32697;SDS011;19087;51.062;3.754;2022-12-18T11:13:23;31.75;;;18.73;;
32697;SDS011;19087;51.062;3.754;2022-12-18T11:15:51;38.40;;;21.20;;
32697;SDS011;19087;51.062;3.754;2022-12-18T11:18:17;38.33;;;19.70;;
32697;SDS011;19087;51.062;3.754;2022-12-18T11:21:29;32.83;;;19.05;;
32697;SDS011;19087;51.062;3.754;2022-12-18T11:23:43;33.17;;;19.73;;
32697;SDS011;19087;51.062;3.754;2022-12-18T11:26:11;31.55;;;18.52;;
32697;SDS011;19087;51.062;3.754;2022-12-18T11:28:51;33.30;;;21.08;;
32697;SDS011;19087;51.062;3.754;2022-12-18T11:31:31;32.08;;;19.40;;
32697;SDS011;19087;51.062;3.754;2022-12-18T11:33:59;31.33;;;19.15;;
32697;SDS011;19087;51.062;3.754;2022-12-18T11:36:46;29.10;;;18.58;;
32697;SDS011;19087;51.062;3.754;2022-12-18T11:39:15;31.10;;;18.40;;
32697;SDS011;19087;51.062;3.754;2022-12-18T11:42:03;36.50;;;20.27;;
32697;SDS011;19087;51.062;3.754;2022-12-18T11:44:45;37.00;;;19.77;;
32697;SDS011;19087;51.062;3.754;2022-12-18T11:53:04;31.20;;;18.83;;
32697;SDS011;19087;51.062;3.754;2022-12-18T11:55:40;29.98;;;19.02;;
32697;SDS011;19087;51.062;3.754;2022-12-18T11:58:31;31.20;;;17.83;;
32697;SDS011;19087;51.062;3.754;2022-12-18T12:09:24;31.58;;;18.75;;
32697;SDS011;19087;51.062;3.754;2022-12-18T12:11:57;36.63;;;19.70;;
32697;SDS011;19087;51.062;3.754;2022-12-18T12:14:39;30.80;;;18.10;;
32697;SDS011;19087;51.062;3.754;2022-12-18T12:23:05;30.73;;;18.27;;
32697;SDS011;19087;51.062;3.754;2022-12-18T12:35:09;28.55;;;16.92;;
32697;SDS011;19087;51.062;3.754;2022-12-18T12:41:01;30.50;;;17.52;;
32697;SDS011;19087;51.062;3.754;2022-12-18T12:43:53;35.13;;;20.05;;
32697;SDS011;19087;51.062;3.754;2022-12-18T12:46:23;38.58;;;20.08;;
32697;SDS011;19087;51.062;3.754;2022-12-18T12:48:55;38.47;;;20.50;;
32697;SDS011;19087;51.062;3.754;2022-12-18T12:51:34;34.67;;;19.75;;
32697;SDS011;19087;51.062;3.754;2022-12-18T12:54:03;34.55;;;19.80;;
32697;SDS011;19087;51.062;3.754;2022-12-18T12:56:45;35.60;;;20.27;;
32697;SDS011;19087;51.062;3.754;2022-12-18T12:59:27;33.78;;;19.80;;
32697;SDS011;19087;51.062;3.754;2022-12-18T13:02:09;37.15;;;20.13;;
32697;SDS011;19087;51.062;3.754;2022-12-18T13:04:55;34.72;;;19.48;;
32697;SDS011;19087;51.062;3.754;2022-12-18T13:07:35;36.03;;;21.23;;
32697;SDS011;19087;51.062;3.754;2022-12-18T13:10:38;40.22;;;22.25;;
32697;SDS011;19087;51.062;3.754;2022-12-18T13:15:38;41.35;;;21.92;;
32697;SDS011;19087;51.062;3.754;2022-12-18T13:23:01;42.92;;;24.65;;
32697;SDS011;19087;51.062;3.754;2022-12-18T13:25:57;40.25;;;22.90;;
32697;SDS011;19087;51.062;3.754;2022-12-18T13:31:11;41.83;;;22.45;;
32697;SDS011;19087;51.062;3.754;2022-12-18T13:33:41;38.92;;;23.92;;
32697;SDS011;19087;51.062;3.754;2022-12-18T13:41:41;39.58;;;23.98;;
32697;SDS011;19087;51.062;3.754;2022-12-18T13:46:59;56.80;;;24.80;;
32697;SDS011;19087;51.062;3.754;2022-12-18T13:49:37;40.88;;;23.30;;
32697;SDS011;19087;51.062;3.754;2022-12-18T13:55:01;42.63;;;24.45;;
32697;SDS011;19087;51.062;3.754;2022-12-18T13:57:40;43.67;;;24.00;;
32697;SDS011;19087;51.062;3.754;2022-12-18T14:02:47;47.78;;;23.88;;
32697;SDS011;19087;51.062;3.754;2022-12-18T14:07:51;43.55;;;23.15;;
32697;SDS011;19087;51.062;3.754;2022-12-18T14:10:17;41.63;;;24.60;;
32697;SDS011;19087;51.062;3.754;2022-12-18T14:12:48;43.33;;;25.25;;
32697;SDS011;19087;51.062;3.754;2022-12-18T14:17:56;44.90;;;24.58;;
32697;SDS011;19087;51.062;3.754;2022-12-18T14:20:43;46.58;;;25.13;;
32697;SDS011;19087;51.062;3.754;2022-12-18T14:26:23;46.78;;;24.95;;
32697;SDS011;19087;51.062;3.754;2022-12-18T14:28:54;46.55;;;25.92;;
32697;SDS011;19087;51.062;3.754;2022-12-18T14:31:29;46.42;;;25.05;;
32697;SDS011;19087;51.062;3.754;2022-12-18T14:33:57;46.30;;;25.77;;
32697;SDS011;19087;51.062;3.754;2022-12-18T14:36:24;52.30;;;28.60;;
32697;SDS011;19087;51.062;3.754;2022-12-18T14:38:55;44.35;;;25.02;;
32697;SDS011;19087;51.062;3.754;2022-12-18T14:41:25;48.22;;;27.00;;
32697;SDS011;19087;51.062;3.754;2022-12-18T14:43:54;48.78;;;26.13;;
32697;SDS011;19087;51.062;3.754;2022-12-18T14:46:33;46.78;;;25.92;;
32697;SDS011;19087;51.062;3.754;2022-12-18T14:49:20;43.60;;;24.90;;
32697;SDS011;19087;51.062;3.754;2022-12-18T14:51:51;49.47;;;25.95;;
32697;SDS011;19087;51.062;3.754;2022-12-18T14:54:20;48.05;;;26.10;;
32697;SDS011;19087;51.062;3.754;2022-12-18T14:56:51;45.50;;;25.33;;
32697;SDS011;19087;51.062;3.754;2022-12-18T14:59:29;48.95;;;25.50;;
32697;SDS011;19087;51.062;3.754;2022-12-18T15:04:30;46.63;;;25.83;;
32697;SDS011;19087;51.062;3.754;2022-12-18T15:12:43;44.38;;;23.38;;
32697;SDS011;19087;51.062;3.754;2022-12-18T15:17:59;45.92;;;24.38;;
32697;SDS011;19087;51.062;3.754;2022-12-18T15:20:42;46.85;;;24.27;;
32697;SDS011;19087;51.062;3.754;2022-12-18T15:26:00;45.38;;;25.77;;
32697;SDS011;19087;51.062;3.754;2022-12-18T15:28:36;48.67;;;26.25;;
32697;SDS011;19087;51.062;3.754;2022-12-18T15:31:05;50.28;;;26.45;;
32697;SDS011;19087;51.062;3.754;2022-12-18T15:33:35;45.67;;;24.70;;
32697;SDS011;19087;51.062;3.754;2022-12-18T15:36:08;45.30;;;24.20;;
32697;SDS011;19087;51.062;3.754;2022-12-18T15:38:40;50.03;;;26.00;;
32697;SDS011;19087;51.062;3.754;2022-12-18T15:41:17;48.45;;;25.90;;
32697;SDS011;19087;51.062;3.754;2022-12-18T15:43:45;46.42;;;26.13;;
32697;SDS011;19087;51.062;3.754;2022-12-18T15:46:19;51.47;;;26.05;;
32697;SDS011;19087;51.062;3.754;2022-12-18T15:48:50;48.38;;;26.63;;
32697;SDS011;19087;51.062;3.754;2022-12-18T15:51:24;45.63;;;24.65;;
32697;SDS011;19087;51.062;3.754;2022-12-18T15:54:01;46.92;;;25.83;;
32697;SDS011;19087;51.062;3.754;2022-12-18T15:59:19;46.78;;;24.65;;
32697;SDS011;19087;51.062;3.754;2022-12-18T16:01:50;51.38;;;25.35;;
32697;SDS011;19087;51.062;3.754;2022-12-18T16:04:32;47.15;;;24.70;;
32697;SDS011;19087;51.062;3.754;2022-12-18T16:07:01;46.17;;;26.25;;
32697;SDS011;19087;51.062;3.754;2022-12-18T16:09:30;47.92;;;26.23;;
32697;SDS011;19087;51.062;3.754;2022-12-18T16:11:59;45.28;;;25.08;;
32697;SDS011;19087;51.062;3.754;2022-12-18T16:14:35;50.20;;;27.02;;
32697;SDS011;19087;51.062;3.754;2022-12-18T16:17:03;47.20;;;25.75;;
32697;SDS011;19087;51.062;3.754;2022-12-18T16:19:38;47.10;;;27.02;;
32697;SDS011;19087;51.062;3.754;2022-12-18T16:22:15;52.10;;;26.92;;
32697;SDS011;19087;51.062;3.754;2022-12-18T16:24:47;47.03;;;25.33;;
32697;SDS011;19087;51.062;3.754;2022-12-18T16:27:23;46.60;;;25.38;;
32697;SDS011;19087;51.062;3.754;2022-12-18T16:30:05;50.70;;;27.08;;
32697;SDS011;19087;51.062;3.754;2022-12-18T16:32:31;48.67;;;26.90;;
32697;SDS011;19087;51.062;3.754;2022-12-18T16:34:59;48.53;;;25.63;;
32697;SDS011;19087;51.062;3.754;2022-12-18T16:37:25;47.95;;;26.58;;
32697;SDS011;19087;51.062;3.754;2022-12-18T16:39:51;52.83;;;26.98;;
32697;SDS011;19087;51.062;3.754;2022-12-18T16:42:19;46.63;;;26.02;;
32697;SDS011;19087;51.062;3.754;2022-12-18T16:44:50;50.17;;;27.88;;
32697;SDS011;19087;51.062;3.754;2022-12-18T16:47:25;51.08;;;29.33;;
32697;SDS011;19087;51.062;3.754;2022-12-18T16:49:58;56.08;;;27.15;;
32697;SDS011;19087;51.062;3.754;2022-12-18T16:55:29;46.13;;;24.52;;
32697;SDS011;19087;51.062;3.754;2022-12-18T16:58:04;49.20;;;25.88;;
32697;SDS011;19087;51.062;3.754;2022-12-18T17:03:08;53.60;;;26.02;;
32697;SDS011;19087;51.062;3.754;2022-12-18T17:05:39;48.65;;;24.85;;
32697;SDS011;19087;51.062;3.754;2022-12-18T17:08:14;49.83;;;25.25;;
32697;SDS011;19087;51.062;3.754;2022-12-18T17:10:41;46.90;;;24.52;;
32697;SDS011;19087;51.062;3.754;2022-12-18T17:13:42;53.85;;;27.20;;
32697;SDS011;19087;51.062;3.754;2022-12-18T17:16:09;47.15;;;23.65;;
32697;SDS011;19087;51.062;3.754;2022-12-18T17:18:37;49.53;;;25.92;;
32697;SDS011;19087;51.062;3.754;2022-12-18T17:21:04;44.08;;;25.30;;
32697;SDS011;19087;51.062;3.754;2022-12-18T17:23:37;48.28;;;25.55;;
32697;SDS011;19087;51.062;3.754;2022-12-18T17:31:41;46.80;;;25.67;;
32697;SDS011;19087;51.062;3.754;2022-12-18T17:34:15;52.70;;;26.30;;
32697;SDS011;19087;51.062;3.754;2022-12-18T17:39:30;53.58;;;27.45;;
32697;SDS011;19087;51.062;3.754;2022-12-18T17:42:37;54.47;;;26.60;;
32697;SDS011;19087;51.062;3.754;2022-12-18T17:45:16;47.95;;;25.60;;
32697;SDS011;19087;51.062;3.754;2022-12-18T17:47:45;49.97;;;28.02;;
32697;SDS011;19087;51.062;3.754;2022-12-18T17:50:14;61.17;;;30.67;;
32697;SDS011;19087;51.062;3.754;2022-12-18T17:52:41;51.70;;;26.75;;
32697;SDS011;19087;51.062;3.754;2022-12-18T17:55:10;54.88;;;28.58;;
32697;SDS011;19087;51.062;3.754;2022-12-18T17:57:38;48.47;;;26.33;;
32697;SDS011;19087;51.062;3.754;2022-12-18T18:02:39;47.65;;;25.15;;
32697;SDS011;19087;51.062;3.754;2022-12-18T18:05:08;50.40;;;26.67;;
32697;SDS011;19087;51.062;3.754;2022-12-18T18:07:55;47.35;;;24.98;;
32697;SDS011;19087;51.062;3.754;2022-12-18T18:10:25;50.85;;;28.75;;
32697;SDS011;19087;51.062;3.754;2022-12-18T18:13:13;51.42;;;27.15;;
32697;SDS011;19087;51.062;3.754;2022-12-18T18:18:45;49.83;;;25.13;;
32697;SDS011;19087;51.062;3.754;2022-12-18T18:21:22;49.20;;;24.35;;
32697;SDS011;19087;51.062;3.754;2022-12-18T18:27:17;52.60;;;27.35;;
32697;SDS011;19087;51.062;3.754;2022-12-18T18:29:45;56.75;;;29.45;;
32697;SDS011;19087;51.062;3.754;2022-12-18T18:32:26;60.13;;;28.98;;
32697;SDS011;19087;51.062;3.754;2022-12-18T18:35:32;53.97;;;29.00;;
32697;SDS011;19087;51.062;3.754;2022-12-18T18:38:16;54.53;;;27.38;;
32697;SDS011;19087;51.062;3.754;2022-12-18T18:44:17;56.45;;;28.33;;
32697;SDS011;19087;51.062;3.754;2022-12-18T19:05:18;58.03;;;28.90;;
32697;SDS011;19087;51.062;3.754;2022-12-18T19:07:59;52.60;;;27.77;;
32697;SDS011;19087;51.062;3.754;2022-12-18T19:11:46;53.17;;;27.92;;
32697;SDS011;19087;51.062;3.754;2022-12-18T19:14:36;51.10;;;26.00;;
32697;SDS011;19087;51.062;3.754;2022-12-18T19:19:49;54.83;;;26.83;;
32697;SDS011;19087;51.062;3.754;2022-12-18T19:22:41;52.33;;;28.15;;
32697;SDS011;19087;51.062;3.754;2022-12-18T19:25:37;52.72;;;25.70;;
32697;SDS011;19087;51.062;3.754;2022-12-18T19:28:15;49.05;;;27.08;;
32697;SDS011;19087;51.062;3.754;2022-12-18T19:31:03;56.80;;;28.45;;
32697;SDS011;19087;51.062;3.754;2022-12-18T19:33:48;55.33;;;27.00;;
32697;SDS011;19087;51.062;3.754;2022-12-18T19:36:28;56.08;;;27.73;;
32697;SDS011;19087;51.062;3.754;2022-12-18T19:38:57;50.65;;;26.15;;
32697;SDS011;19087;51.062;3.754;2022-12-18T19:41:28;49.78;;;26.77;;
32697;SDS011;19087;51.062;3.754;2022-12-18T19:44:15;54.22;;;28.08;;
32697;SDS011;19087;51.062;3.754;2022-12-18T19:47:15;56.35;;;27.58;;
32697;SDS011;19087;51.062;3.754;2022-12-18T19:49:43;52.80;;;26.58;;
32697;SDS011;19087;51.062;3.754;2022-12-18T19:52:09;53.85;;;26.80;;
32697;SDS011;19087;51.062;3.754;2022-12-18T19:54:36;51.20;;;27.55;;
32697;SDS011;19087;51.062;3.754;2022-12-18T19:59:56;48.63;;;26.17;;
32697;SDS011;19087;51.062;3.754;2022-12-18T20:03:00;54.47;;;28.90;;
32697;SDS011;19087;51.062;3.754;2022-12-18T20:09:04;51.85;;;25.80;;
32697;SDS011;19087;51.062;3.754;2022-12-18T20:11:34;49.30;;;27.30;;
32697;SDS011;19087;51.062;3.754;2022-12-18T20:14:10;50.70;;;27.45;;
32697;SDS011;19087;51.062;3.754;2022-12-18T20:16:48;49.10;;;26.83;;
32697;SDS011;19087;51.062;3.754;2022-12-18T20:19:17;51.80;;;26.52;;
32697;SDS011;19087;51.062;3.754;2022-12-18T20:21:48;48.35;;;25.45;;
32697;SDS011;19087;51.062;3.754;2022-12-18T20:24:15;53.92;;;27.13;;
32697;SDS011;19087;51.062;3.754;2022-12-18T20:26:46;50.30;;;26.45;;
32697;SDS011;19087;51.062;3.754;2022-12-18T20:29:43;44.92;;;25.05;;
32697;SDS011;19087;51.062;3.754;2022-12-18T20:32:27;47.40;;;24.73;;
32697;SDS011;19087;51.062;3.754;2022-12-18T20:35:12;49.20;;;26.38;;
32697;SDS011;19087;51.062;3.754;2022-12-18T20:40:39;47.22;;;23.88;;
32697;SDS011;19087;51.062;3.754;2022-12-18T20:43:13;45.55;;;24.30;;
32697;SDS011;19087;51.062;3.754;2022-12-18T20:45:50;49.50;;;23.80;;
32697;SDS011;19087;51.062;3.754;2022-12-18T20:51:02;45.92;;;22.52;;
32697;SDS011;19087;51.062;3.754;2022-12-18T20:53:42;44.30;;;24.30;;
32697;SDS011;19087;51.062;3.754;2022-12-18T20:56:41;47.20;;;24.60;;
32697;SDS011;19087;51.062;3.754;2022-12-18T20:59:18;49.40;;;23.25;;
32697;SDS011;19087;51.062;3.754;2022-12-18T21:10:24;45.20;;;22.25;;
32697;SDS011;19087;51.062;3.754;2022-12-18T21:12:59;41.47;;;22.60;;
32697;SDS011;19087;51.062;3.754;2022-12-18T21:16:12;43.75;;;21.85;;
32697;SDS011;19087;51.062;3.754;2022-12-18T21:18:59;45.20;;;23.27;;
32697;SDS011;19087;51.062;3.754;2022-12-18T21:21:36;39.72;;;22.75;;
32697;SDS011;19087;51.062;3.754;2022-12-18T21:24:25;40.85;;;21.05;;
32697;SDS011;19087;51.062;3.754;2022-12-18T21:30:59;39.58;;;21.83;;
32697;SDS011;19087;51.062;3.754;2022-12-18T21:33:44;41.95;;;22.08;;
32697;SDS011;19087;51.062;3.754;2022-12-18T21:36:15;41.25;;;20.35;;
32697;SDS011;19087;51.062;3.754;2022-12-18T21:42:07;39.75;;;21.30;;
32697;SDS011;19087;51.062;3.754;2022-12-18T21:45:20;44.97;;;22.27;;
32697;SDS011;19087;51.062;3.754;2022-12-18T21:48:17;41.10;;;21.52;;
32697;SDS011;19087;51.062;3.754;2022-12-18T21:50:50;42.50;;;23.52;;
32697;SDS011;19087;51.062;3.754;2022-12-18T21:53:24;45.72;;;23.67;;
32697;SDS011;19087;51.062;3.754;2022-12-18T21:56:11;41.33;;;21.30;;
32697;SDS011;19087;51.062;3.754;2022-12-18T22:01:49;42.40;;;22.20;;
32697;SDS011;19087;51.062;3.754;2022-12-18T22:08:07;41.90;;;20.42;;
32697;SDS011;19087;51.062;3.754;2022-12-18T22:11:09;37.22;;;19.98;;
